sensor_id;sensor_type;location;lat;lon;timestamp;P1;durP1;ratioP1;P2;durP2;ratioP2
12848;SDS011;6493;50.928;7.172;2023-04-01T00:00:08;1.07;;;0.30;;
12848;SDS011;6493;50.928;7.172;2023-04-01T00:05:16;0.10;;;0.10;;
12848;SDS011;6493;50.928;7.172;2023-04-01T00:10:20;0.20;;;0.20;;
12848;SDS011;6493;50.928;7.172;2023-04-01T00:15:24;0.37;;;0.20;;
12848;SDS011;6493;50.928;7.172;2023-04-01T00:20:29;0.20;;;0.20;;
12848;SDS011;6493;50.928;7.172;2023-04-01T00:25:32;0.70;;;0.30;;
12848;SDS011;6493;50.928;7.172;2023-04-01T00:30:36;0.23;;;0.23;;
12848;SDS011;6493;50.928;7.172;2023-04-01T00:35:41;0.67;;;0.30;;
12848;SDS011;6493;50.928;7.172;2023-04-01T00:40:46;1.30;;;0.30;;
12848;SDS011;6493;50.928;7.172;2023-04-01T00:45:50;0.20;;;0.10;;
12848;SDS011;6493;50.928;7.172;2023-04-01T00:50:56;0.40;;;0.20;;
12848;SDS011;6493;50.928;7.172;2023-04-01T00:56:04;1.17;;;0.30;;
12848;SDS011;6493;50.928;7.172;2023-04-01T01:01:12;0.47;;;0.20;;
12848;SDS011;6493;50.928;7.172;2023-04-01T01:06:21;0.97;;;0.30;;
12848;SDS011;6493;50.928;7.172;2023-04-01T01:11:33;0.53;;;0.30;;
12848;SDS011;6493;50.928;7.172;2023-04-01T01:16:45;0.33;;;0.20;;
12848;SDS011;6493;50.928;7.172;2023-04-01T01:22:01;0.53;;;0.20;;
12848;SDS011;6493;50.928;7.172;2023-04-01T01:27:23;0.13;;;0.13;;
12848;SDS011;6493;50.928;7.172;2023-04-01T01:38:05;0.27;;;0.20;;
12848;SDS011;6493;50.928;7.172;2023-04-01T01:43:15;0.50;;;0.30;;
12848;SDS011;6493;50.928;7.172;2023-04-01T01:48:22;1.00;;;0.30;;
12848;SDS011;6493;50.928;7.172;2023-04-01T01:53:29;1.50;;;0.30;;
12848;SDS011;6493;50.928;7.172;2023-04-01T01:58:33;0.20;;;0.20;;
12848;SDS011;6493;50.928;7.172;2023-04-01T02:03:44;0.33;;;0.20;;
12848;SDS011;6493;50.928;7.172;2023-04-01T02:08:51;0.10;;;0.10;;
12848;SDS011;6493;50.928;7.172;2023-04-01T02:13:58;0.20;;;0.10;;
12848;SDS011;6493;50.928;7.172;2023-04-01T02:19:05;0.47;;;0.20;;
12848;SDS011;6493;50.928;7.172;2023-04-01T02:24:13;0.53;;;0.27;;
12848;SDS011;6493;50.928;7.172;2023-04-01T02:29:18;0.10;;;0.10;;
12848;SDS011;6493;50.928;7.172;2023-04-01T02:34:24;0.10;;;0.10;;
12848;SDS011;6493;50.928;7.172;2023-04-01T02:39:30;1.23;;;0.10;;
12848;SDS011;6493;50.928;7.172;2023-04-01T02:44:34;0.30;;;0.13;;
12848;SDS011;6493;50.928;7.172;2023-04-01T02:49:38;0.50;;;0.10;;
12848;SDS011;6493;50.928;7.172;2023-04-01T02:54:43;0.27;;;0.20;;
12848;SDS011;6493;50.928;7.172;2023-04-01T02:59:46;1.47;;;0.10;;
12848;SDS011;6493;50.928;7.172;2023-04-01T03:04:50;0.20;;;0.20;;
12848;SDS011;6493;50.928;7.172;2023-04-01T03:09:55;0.40;;;0.10;;
12848;SDS011;6493;50.928;7.172;2023-04-01T03:14:59;0.60;;;0.20;;
12848;SDS011;6493;50.928;7.172;2023-04-01T03:20:13;0.27;;;0.20;;
12848;SDS011;6493;50.928;7.172;2023-04-01T03:25:19;0.87;;;0.30;;
12848;SDS011;6493;50.928;7.172;2023-04-01T03:30:22;0.53;;;0.20;;
12848;SDS011;6493;50.928;7.172;2023-04-01T03:35:26;0.10;;;0.10;;
12848;SDS011;6493;50.928;7.172;2023-04-01T03:40:30;0.17;;;0.10;;
12848;SDS011;6493;50.928;7.172;2023-04-01T03:45:35;0.10;;;0.10;;
12848;SDS011;6493;50.928;7.172;2023-04-01T03:50:38;0.10;;;0.10;;
12848;SDS011;6493;50.928;7.172;2023-04-01T03:55:42;0.20;;;0.20;;
12848;SDS011;6493;50.928;7.172;2023-04-01T04:00:46;0.57;;;0.10;;
12848;SDS011;6493;50.928;7.172;2023-04-01T04:05:49;0.20;;;0.20;;
12848;SDS011;6493;50.928;7.172;2023-04-01T04:10:57;0.17;;;0.17;;
12848;SDS011;6493;50.928;7.172;2023-04-01T04:16:00;0.30;;;0.23;;
12848;SDS011;6493;50.928;7.172;2023-04-01T04:21:06;0.50;;;0.20;;
12848;SDS011;6493;50.928;7.172;2023-04-01T04:26:11;0.00;;;0.00;;
12848;SDS011;6493;50.928;7.172;2023-04-01T04:31:18;0.10;;;0.10;;
12848;SDS011;6493;50.928;7.172;2023-04-01T04:36:24;0.20;;;0.20;;
12848;SDS011;6493;50.928;7.172;2023-04-01T04:41:28;0.10;;;0.10;;
12848;SDS011;6493;50.928;7.172;2023-04-01T04:46:32;0.53;;;0.27;;
12848;SDS011;6493;50.928;7.172;2023-04-01T04:51:45;0.10;;;0.10;;
12848;SDS011;6493;50.928;7.172;2023-04-01T04:56:52;0.07;;;0.07;;
12848;SDS011;6493;50.928;7.172;2023-04-01T05:01:57;0.10;;;0.10;;
12848;SDS011;6493;50.928;7.172;2023-04-01T05:07:02;0.10;;;0.10;;
12848;SDS011;6493;50.928;7.172;2023-04-01T05:12:08;0.10;;;0.10;;
12848;SDS011;6493;50.928;7.172;2023-04-01T05:17:34;0.03;;;0.03;;
12848;SDS011;6493;50.928;7.172;2023-04-01T05:22:38;0.10;;;0.10;;
12848;SDS011;6493;50.928;7.172;2023-04-01T05:27:43;0.30;;;0.20;;
12848;SDS011;6493;50.928;7.172;2023-04-01T05:32:46;0.03;;;0.00;;
12848;SDS011;6493;50.928;7.172;2023-04-01T05:37:51;0.10;;;0.10;;
12848;SDS011;6493;50.928;7.172;2023-04-01T05:42:56;0.20;;;0.20;;
12848;SDS011;6493;50.928;7.172;2023-04-01T05:48:00;0.10;;;0.10;;
12848;SDS011;6493;50.928;7.172;2023-04-01T05:53:09;0.00;;;0.00;;
12848;SDS011;6493;50.928;7.172;2023-04-01T05:58:17;0.30;;;0.10;;
12848;SDS011;6493;50.928;7.172;2023-04-01T06:03:21;0.10;;;0.10;;
12848;SDS011;6493;50.928;7.172;2023-04-01T06:08:25;0.20;;;0.20;;
12848;SDS011;6493;50.928;7.172;2023-04-01T06:13:39;0.13;;;0.10;;
12848;SDS011;6493;50.928;7.172;2023-04-01T06:19:00;1.63;;;1.40;;
12848;SDS011;6493;50.928;7.172;2023-04-01T06:24:27;2.47;;;1.00;;
12848;SDS011;6493;50.928;7.172;2023-04-01T06:29:46;0.50;;;0.40;;
12848;SDS011;6493;50.928;7.172;2023-04-01T06:35:07;1.13;;;0.80;;
12848;SDS011;6493;50.928;7.172;2023-04-01T06:40:27;0.53;;;0.53;;
12848;SDS011;6493;50.928;7.172;2023-04-01T06:45:49;0.30;;;0.30;;
12848;SDS011;6493;50.928;7.172;2023-04-01T06:51:20;0.90;;;0.80;;
12848;SDS011;6493;50.928;7.172;2023-04-01T06:56:46;0.50;;;0.50;;
12848;SDS011;6493;50.928;7.172;2023-04-01T07:01:59;0.40;;;0.40;;
12848;SDS011;6493;50.928;7.172;2023-04-01T07:07:09;0.70;;;0.50;;
12848;SDS011;6493;50.928;7.172;2023-04-01T07:12:31;0.50;;;0.50;;
12848;SDS011;6493;50.928;7.172;2023-04-01T07:17:49;0.40;;;0.30;;
12848;SDS011;6493;50.928;7.172;2023-04-01T07:22:57;0.50;;;0.47;;
12848;SDS011;6493;50.928;7.172;2023-04-01T07:28:11;0.30;;;0.30;;
12848;SDS011;6493;50.928;7.172;2023-04-01T07:33:22;0.33;;;0.33;;
12848;SDS011;6493;50.928;7.172;2023-04-01T07:38:33;0.30;;;0.30;;
12848;SDS011;6493;50.928;7.172;2023-04-01T07:43:52;0.40;;;0.20;;
12848;SDS011;6493;50.928;7.172;2023-04-01T07:49:06;0.40;;;0.30;;
12848;SDS011;6493;50.928;7.172;2023-04-01T07:54:17;0.30;;;0.30;;
12848;SDS011;6493;50.928;7.172;2023-04-01T07:59:26;0.30;;;0.30;;
12848;SDS011;6493;50.928;7.172;2023-04-01T08:04:50;0.20;;;0.20;;
12848;SDS011;6493;50.928;7.172;2023-04-01T08:10:04;0.20;;;0.20;;
12848;SDS011;6493;50.928;7.172;2023-04-01T08:15:34;0.27;;;0.20;;
12848;SDS011;6493;50.928;7.172;2023-04-01T08:20:50;0.20;;;0.20;;
12848;SDS011;6493;50.928;7.172;2023-04-01T08:26:00;0.10;;;0.10;;
12848;SDS011;6493;50.928;7.172;2023-04-01T08:31:13;0.80;;;0.30;;
12848;SDS011;6493;50.928;7.172;2023-04-01T08:36:23;0.63;;;0.40;;
12848;SDS011;6493;50.928;7.172;2023-04-01T08:47:28;0.30;;;0.30;;
12848;SDS011;6493;50.928;7.172;2023-04-01T08:53:00;0.20;;;0.20;;
12848;SDS011;6493;50.928;7.172;2023-04-01T09:04:03;0.23;;;0.20;;
12848;SDS011;6493;50.928;7.172;2023-04-01T09:26:08;0.10;;;0.10;;
12848;SDS011;6493;50.928;7.172;2023-04-01T09:31:38;0.20;;;0.20;;
12848;SDS011;6493;50.928;7.172;2023-04-01T09:37:18;0.17;;;0.17;;
12848;SDS011;6493;50.928;7.172;2023-04-01T09:42:37;1.27;;;0.73;;
12848;SDS011;6493;50.928;7.172;2023-04-01T09:47:57;0.53;;;0.40;;
12848;SDS011;6493;50.928;7.172;2023-04-01T09:53:14;1.03;;;0.30;;
12848;SDS011;6493;50.928;7.172;2023-04-01T09:58:44;0.20;;;0.20;;
12848;SDS011;6493;50.928;7.172;2023-04-01T10:04:51;0.33;;;0.30;;
12848;SDS011;6493;50.928;7.172;2023-04-01T10:10:28;0.20;;;0.20;;
12848;SDS011;6493;50.928;7.172;2023-04-01T10:16:04;0.17;;;0.17;;
12848;SDS011;6493;50.928;7.172;2023-04-01T10:27:16;0.20;;;0.20;;
12848;SDS011;6493;50.928;7.172;2023-04-01T10:38:53;0.20;;;0.20;;
12848;SDS011;6493;50.928;7.172;2023-04-01T10:50:23;0.17;;;0.17;;
12848;SDS011;6493;50.928;7.172;2023-04-01T11:01:58;0.10;;;0.10;;
12848;SDS011;6493;50.928;7.172;2023-04-01T11:08:00;0.20;;;0.20;;
12848;SDS011;6493;50.928;7.172;2023-04-01T11:19:17;0.20;;;0.20;;
12848;SDS011;6493;50.928;7.172;2023-04-01T11:24:51;0.10;;;0.10;;
12848;SDS011;6493;50.928;7.172;2023-04-01T11:30:29;0.60;;;0.20;;
12848;SDS011;6493;50.928;7.172;2023-04-01T11:36:00;0.20;;;0.20;;
12848;SDS011;6493;50.928;7.172;2023-04-01T11:41:19;0.20;;;0.20;;
12848;SDS011;6493;50.928;7.172;2023-04-01T11:46:39;0.13;;;0.13;;
12848;SDS011;6493;50.928;7.172;2023-04-01T11:52:01;0.40;;;0.40;;
12848;SDS011;6493;50.928;7.172;2023-04-01T11:57:20;0.10;;;0.10;;
12848;SDS011;6493;50.928;7.172;2023-04-01T12:02:48;0.23;;;0.20;;
12848;SDS011;6493;50.928;7.172;2023-04-01T12:08:12;0.20;;;0.20;;
12848;SDS011;6493;50.928;7.172;2023-04-01T12:13:29;0.20;;;0.20;;
12848;SDS011;6493;50.928;7.172;2023-04-01T12:18:37;0.63;;;0.20;;
12848;SDS011;6493;50.928;7.172;2023-04-01T12:23:57;0.20;;;0.20;;
12848;SDS011;6493;50.928;7.172;2023-04-01T12:29:28;0.30;;;0.30;;
12848;SDS011;6493;50.928;7.172;2023-04-01T12:34:55;0.33;;;0.30;;
12848;SDS011;6493;50.928;7.172;2023-04-01T12:40:26;1.17;;;0.20;;
12848;SDS011;6493;50.928;7.172;2023-04-01T12:45:42;0.30;;;0.30;;
12848;SDS011;6493;50.928;7.172;2023-04-01T12:50:58;0.20;;;0.20;;
12848;SDS011;6493;50.928;7.172;2023-04-01T12:56:32;0.20;;;0.20;;
12848;SDS011;6493;50.928;7.172;2023-04-01T13:01:57;0.20;;;0.20;;
12848;SDS011;6493;50.928;7.172;2023-04-01T13:07:19;0.20;;;0.20;;
12848;SDS011;6493;50.928;7.172;2023-04-01T13:12:43;0.20;;;0.20;;
12848;SDS011;6493;50.928;7.172;2023-04-01T13:17:58;0.20;;;0.20;;
12848;SDS011;6493;50.928;7.172;2023-04-01T13:23:11;0.00;;;0.00;;
12848;SDS011;6493;50.928;7.172;2023-04-01T13:28:24;0.23;;;0.23;;
12848;SDS011;6493;50.928;7.172;2023-04-01T13:33:32;0.17;;;0.17;;
12848;SDS011;6493;50.928;7.172;2023-04-01T13:39:04;0.10;;;0.10;;
12848;SDS011;6493;50.928;7.172;2023-04-01T13:44:19;0.30;;;0.30;;
12848;SDS011;6493;50.928;7.172;2023-04-01T13:55:24;0.33;;;0.30;;
12848;SDS011;6493;50.928;7.172;2023-04-01T14:00:52;0.30;;;0.30;;
12848;SDS011;6493;50.928;7.172;2023-04-01T14:06:05;0.30;;;0.30;;
12848;SDS011;6493;50.928;7.172;2023-04-01T14:11:17;0.20;;;0.20;;
12848;SDS011;6493;50.928;7.172;2023-04-01T14:21:58;0.30;;;0.30;;
12848;SDS011;6493;50.928;7.172;2023-04-01T14:27:19;0.50;;;0.40;;
12848;SDS011;6493;50.928;7.172;2023-04-01T14:32:40;0.30;;;0.30;;
12848;SDS011;6493;50.928;7.172;2023-04-01T14:37:59;0.60;;;0.60;;
12848;SDS011;6493;50.928;7.172;2023-04-01T14:48:51;0.30;;;0.30;;
12848;SDS011;6493;50.928;7.172;2023-04-01T14:54:08;0.50;;;0.50;;
12848;SDS011;6493;50.928;7.172;2023-04-01T14:59:27;0.60;;;0.47;;
12848;SDS011;6493;50.928;7.172;2023-04-01T15:04:43;0.30;;;0.30;;
12848;SDS011;6493;50.928;7.172;2023-04-01T15:09:59;0.70;;;0.70;;
12848;SDS011;6493;50.928;7.172;2023-04-01T15:15:21;0.30;;;0.30;;
12848;SDS011;6493;50.928;7.172;2023-04-01T15:20:46;0.40;;;0.40;;
12848;SDS011;6493;50.928;7.172;2023-04-01T15:31:38;0.40;;;0.40;;
12848;SDS011;6493;50.928;7.172;2023-04-01T15:36:50;0.30;;;0.30;;
12848;SDS011;6493;50.928;7.172;2023-04-01T15:42:06;0.40;;;0.37;;
12848;SDS011;6493;50.928;7.172;2023-04-01T15:52:49;0.40;;;0.40;;
12848;SDS011;6493;50.928;7.172;2023-04-01T15:58:06;0.30;;;0.30;;
12848;SDS011;6493;50.928;7.172;2023-04-01T16:03:33;0.20;;;0.20;;
12848;SDS011;6493;50.928;7.172;2023-04-01T16:08:50;0.20;;;0.20;;
12848;SDS011;6493;50.928;7.172;2023-04-01T16:14:07;0.93;;;0.40;;
12848;SDS011;6493;50.928;7.172;2023-04-01T16:24:46;0.40;;;0.40;;
12848;SDS011;6493;50.928;7.172;2023-04-01T16:29:55;0.40;;;0.40;;
12848;SDS011;6493;50.928;7.172;2023-04-01T16:35:10;0.53;;;0.53;;
12848;SDS011;6493;50.928;7.172;2023-04-01T16:40:36;0.43;;;0.43;;
12848;SDS011;6493;50.928;7.172;2023-04-01T16:45:45;0.30;;;0.30;;
12848;SDS011;6493;50.928;7.172;2023-04-01T16:51:01;0.57;;;0.40;;
12848;SDS011;6493;50.928;7.172;2023-04-01T16:56:10;0.40;;;0.40;;
12848;SDS011;6493;50.928;7.172;2023-04-01T17:01:20;0.60;;;0.60;;
12848;SDS011;6493;50.928;7.172;2023-04-01T17:06:30;0.60;;;0.60;;
12848;SDS011;6493;50.928;7.172;2023-04-01T17:11:42;0.50;;;0.50;;
12848;SDS011;6493;50.928;7.172;2023-04-01T17:22:27;0.60;;;0.60;;
12848;SDS011;6493;50.928;7.172;2023-04-01T17:27:39;0.93;;;0.60;;
12848;SDS011;6493;50.928;7.172;2023-04-01T17:32:53;0.60;;;0.60;;
12848;SDS011;6493;50.928;7.172;2023-04-01T17:44:26;0.60;;;0.50;;
12848;SDS011;6493;50.928;7.172;2023-04-01T17:49:42;1.13;;;0.60;;
12848;SDS011;6493;50.928;7.172;2023-04-01T17:54:53;0.50;;;0.50;;
12848;SDS011;6493;50.928;7.172;2023-04-01T18:00:03;0.50;;;0.50;;
12848;SDS011;6493;50.928;7.172;2023-04-01T18:05:26;0.53;;;0.53;;
12848;SDS011;6493;50.928;7.172;2023-04-01T18:10:38;0.57;;;0.57;;
12848;SDS011;6493;50.928;7.172;2023-04-01T18:15:52;0.43;;;0.43;;
12848;SDS011;6493;50.928;7.172;2023-04-01T18:21:02;0.50;;;0.50;;
12848;SDS011;6493;50.928;7.172;2023-04-01T18:26:13;0.60;;;0.60;;
12848;SDS011;6493;50.928;7.172;2023-04-01T18:31:25;0.60;;;0.50;;
12848;SDS011;6493;50.928;7.172;2023-04-01T18:36:39;0.50;;;0.50;;
12848;SDS011;6493;50.928;7.172;2023-04-01T18:41:54;0.57;;;0.57;;
12848;SDS011;6493;50.928;7.172;2023-04-01T18:47:14;0.67;;;0.67;;
12848;SDS011;6493;50.928;7.172;2023-04-01T18:52:24;0.50;;;0.50;;
12848;SDS011;6493;50.928;7.172;2023-04-01T18:57:38;1.77;;;0.60;;
12848;SDS011;6493;50.928;7.172;2023-04-01T19:02:50;0.53;;;0.53;;
12848;SDS011;6493;50.928;7.172;2023-04-01T19:08:13;0.57;;;0.57;;
12848;SDS011;6493;50.928;7.172;2023-04-01T19:13:21;0.67;;;0.67;;
12848;SDS011;6493;50.928;7.172;2023-04-01T19:24:22;0.60;;;0.60;;
12848;SDS011;6493;50.928;7.172;2023-04-01T19:29:43;0.50;;;0.50;;
12848;SDS011;6493;50.928;7.172;2023-04-01T19:34:59;0.40;;;0.40;;
12848;SDS011;6493;50.928;7.172;2023-04-01T19:40:19;0.77;;;0.77;;
12848;SDS011;6493;50.928;7.172;2023-04-01T19:45:35;0.60;;;0.60;;
12848;SDS011;6493;50.928;7.172;2023-04-01T19:50:45;0.50;;;0.50;;
12848;SDS011;6493;50.928;7.172;2023-04-01T19:55:55;1.33;;;0.80;;
12848;SDS011;6493;50.928;7.172;2023-04-01T20:01:03;0.50;;;0.50;;
12848;SDS011;6493;50.928;7.172;2023-04-01T20:06:21;0.40;;;0.40;;
12848;SDS011;6493;50.928;7.172;2023-04-01T20:11:37;0.47;;;0.47;;
12848;SDS011;6493;50.928;7.172;2023-04-01T20:16:50;0.40;;;0.40;;
12848;SDS011;6493;50.928;7.172;2023-04-01T20:21:59;0.67;;;0.67;;
12848;SDS011;6493;50.928;7.172;2023-04-01T20:27:07;0.70;;;0.70;;
12848;SDS011;6493;50.928;7.172;2023-04-01T20:32:22;0.50;;;0.50;;
12848;SDS011;6493;50.928;7.172;2023-04-01T20:37:40;0.60;;;0.50;;
12848;SDS011;6493;50.928;7.172;2023-04-01T20:48:34;0.83;;;0.70;;
12848;SDS011;6493;50.928;7.172;2023-04-01T20:54:05;0.63;;;0.57;;
12848;SDS011;6493;50.928;7.172;2023-04-01T20:59:22;0.50;;;0.50;;
12848;SDS011;6493;50.928;7.172;2023-04-01T21:04:44;0.50;;;0.50;;
12848;SDS011;6493;50.928;7.172;2023-04-01T21:10:11;0.70;;;0.70;;
12848;SDS011;6493;50.928;7.172;2023-04-01T21:15:31;0.43;;;0.43;;
12848;SDS011;6493;50.928;7.172;2023-04-01T21:20:49;0.60;;;0.60;;
12848;SDS011;6493;50.928;7.172;2023-04-01T21:26:05;0.53;;;0.53;;
12848;SDS011;6493;50.928;7.172;2023-04-01T21:31:31;0.70;;;0.70;;
12848;SDS011;6493;50.928;7.172;2023-04-01T21:36:47;0.50;;;0.50;;
12848;SDS011;6493;50.928;7.172;2023-04-01T21:42:12;0.80;;;0.80;;
12848;SDS011;6493;50.928;7.172;2023-04-01T21:59:09;0.70;;;0.70;;
12848;SDS011;6493;50.928;7.172;2023-04-01T22:04:40;0.60;;;0.60;;
12848;SDS011;6493;50.928;7.172;2023-04-01T22:09:57;0.40;;;0.40;;
12848;SDS011;6493;50.928;7.172;2023-04-01T22:15:10;0.37;;;0.37;;
12848;SDS011;6493;50.928;7.172;2023-04-01T22:20:24;0.70;;;0.60;;
12848;SDS011;6493;50.928;7.172;2023-04-01T22:25:37;0.47;;;0.47;;
12848;SDS011;6493;50.928;7.172;2023-04-01T22:30:47;0.57;;;0.57;;
12848;SDS011;6493;50.928;7.172;2023-04-01T22:35:55;0.97;;;0.80;;
12848;SDS011;6493;50.928;7.172;2023-04-01T22:41:07;0.70;;;0.60;;
12848;SDS011;6493;50.928;7.172;2023-04-01T22:46:25;0.50;;;0.50;;
12848;SDS011;6493;50.928;7.172;2023-04-01T22:51:39;0.80;;;0.80;;
12848;SDS011;6493;50.928;7.172;2023-04-01T22:56:47;0.67;;;0.67;;
12848;SDS011;6493;50.928;7.172;2023-04-01T23:01:55;1.37;;;1.03;;
12848;SDS011;6493;50.928;7.172;2023-04-01T23:07:02;1.93;;;0.90;;
12848;SDS011;6493;50.928;7.172;2023-04-01T23:12:19;1.10;;;1.00;;
12848;SDS011;6493;50.928;7.172;2023-04-01T23:17:38;1.77;;;0.83;;
12848;SDS011;6493;50.928;7.172;2023-04-01T23:22:50;0.67;;;0.67;;
12848;SDS011;6493;50.928;7.172;2023-04-01T23:28:13;0.80;;;0.70;;
12848;SDS011;6493;50.928;7.172;2023-04-01T23:33:27;0.70;;;0.70;;
12848;SDS011;6493;50.928;7.172;2023-04-01T23:38:32;1.60;;;1.40;;
12848;SDS011;6493;50.928;7.172;2023-04-01T23:43:39;1.40;;;1.30;;
12848;SDS011;6493;50.928;7.172;2023-04-01T23:48:45;1.33;;;1.23;;
12848;SDS011;6493;50.928;7.172;2023-04-01T23:53:56;0.97;;;0.97;;
12848;SDS011;6493;50.928;7.172;2023-04-01T23:59:02;1.60;;;1.50;;
